sensor_id;sensor_type;location;lat;lon;timestamp;P1;durP1;ratioP1;P2;durP2;ratioP2
32505;SDS011;18955;51.224;8.482;2022-08-11T00:02:14;9.05;;;2.50;;
32505;SDS011;18955;51.224;8.482;2022-08-11T00:04:48;3.70;;;2.30;;
32505;SDS011;18955;51.224;8.482;2022-08-11T00:07:15;7.13;;;2.00;;
32505;SDS011;18955;51.224;8.482;2022-08-11T00:12:12;2.47;;;2.28;;
32505;SDS011;18955;51.224;8.482;2022-08-11T00:14:40;3.03;;;2.03;;
32505;SDS011;18955;51.224;8.482;2022-08-11T00:17:10;4.00;;;2.30;;
32505;SDS011;18955;51.224;8.482;2022-08-11T00:19:39;4.53;;;2.25;;
32505;SDS011;18955;51.224;8.482;2022-08-11T00:22:09;2.75;;;2.20;;
32505;SDS011;18955;51.224;8.482;2022-08-11T00:24:37;2.05;;;1.92;;
32505;SDS011;18955;51.224;8.482;2022-08-11T00:27:05;7.22;;;2.30;;
32505;SDS011;18955;51.224;8.482;2022-08-11T00:29:32;4.47;;;1.80;;
32505;SDS011;18955;51.224;8.482;2022-08-11T00:32:00;3.78;;;2.40;;
32505;SDS011;18955;51.224;8.482;2022-08-11T00:34:31;2.78;;;2.10;;
32505;SDS011;18955;51.224;8.482;2022-08-11T00:37:01;3.03;;;2.22;;
32505;SDS011;18955;51.224;8.482;2022-08-11T00:39:34;2.42;;;1.90;;
32505;SDS011;18955;51.224;8.482;2022-08-11T00:45:16;3.40;;;2.15;;
32505;SDS011;18955;51.224;8.482;2022-08-11T00:48:14;4.32;;;2.05;;
32505;SDS011;18955;51.224;8.482;2022-08-11T00:53:47;4.15;;;2.03;;
32505;SDS011;18955;51.224;8.482;2022-08-11T01:53:14;7.88;;;3.28;;
32505;SDS011;18955;51.224;8.482;2022-08-11T02:02:12;4.75;;;2.00;;
32505;SDS011;18955;51.224;8.482;2022-08-11T02:19:19;3.05;;;2.20;;
32505;SDS011;18955;51.224;8.482;2022-08-11T02:22:10;2.88;;;2.30;;
32505;SDS011;18955;51.224;8.482;2022-08-11T02:53:30;2.58;;;2.38;;
32505;SDS011;18955;51.224;8.482;2022-08-11T02:56:09;2.97;;;2.20;;
32505;SDS011;18955;51.224;8.482;2022-08-11T02:58:54;7.60;;;2.45;;
32505;SDS011;18955;51.224;8.482;2022-08-11T03:02:45;4.53;;;2.50;;
32505;SDS011;18955;51.224;8.482;2022-08-11T03:08:00;3.85;;;2.75;;
32505;SDS011;18955;51.224;8.482;2022-08-11T03:10:47;6.05;;;2.80;;
32505;SDS011;18955;51.224;8.482;2022-08-11T03:33:48;7.45;;;2.78;;
32505;SDS011;18955;51.224;8.482;2022-08-11T03:48:37;3.58;;;2.58;;
32505;SDS011;18955;51.224;8.482;2022-08-11T03:56:38;7.85;;;2.70;;
32505;SDS011;18955;51.224;8.482;2022-08-11T03:59:24;12.95;;;3.28;;
32505;SDS011;18955;51.224;8.482;2022-08-11T04:24:53;13.18;;;2.92;;
32505;SDS011;18955;51.224;8.482;2022-08-11T04:30:17;9.20;;;2.60;;
32505;SDS011;18955;51.224;8.482;2022-08-11T04:46:29;17.02;;;3.88;;
32505;SDS011;18955;51.224;8.482;2022-08-11T04:49:37;22.30;;;3.45;;
32505;SDS011;18955;51.224;8.482;2022-08-11T04:56:15;20.13;;;3.90;;
32505;SDS011;18955;51.224;8.482;2022-08-11T05:05:45;84.25;;;6.00;;
32505;SDS011;18955;51.224;8.482;2022-08-11T05:14:29;37.95;;;4.40;;
32505;SDS011;18955;51.224;8.482;2022-08-11T05:17:22;35.13;;;4.40;;
32505;SDS011;18955;51.224;8.482;2022-08-11T05:20:46;49.83;;;5.95;;
32505;SDS011;18955;51.224;8.482;2022-08-11T05:23:35;52.78;;;6.10;;
32505;SDS011;18955;51.224;8.482;2022-08-11T05:26:25;66.68;;;7.53;;
32505;SDS011;18955;51.224;8.482;2022-08-11T05:29:23;47.53;;;7.43;;
32505;SDS011;18955;51.224;8.482;2022-08-11T05:32:21;48.60;;;7.28;;
32505;SDS011;18955;51.224;8.482;2022-08-11T05:35:08;54.63;;;6.90;;
32505;SDS011;18955;51.224;8.482;2022-08-11T05:37:40;53.10;;;7.25;;
32505;SDS011;18955;51.224;8.482;2022-08-11T05:40:27;57.00;;;6.65;;
32505;SDS011;18955;51.224;8.482;2022-08-11T05:43:13;44.42;;;6.68;;
32505;SDS011;18955;51.224;8.482;2022-08-11T05:46:00;65.53;;;6.80;;
32505;SDS011;18955;51.224;8.482;2022-08-11T05:48:46;95.30;;;8.23;;
32505;SDS011;18955;51.224;8.482;2022-08-11T05:51:35;63.75;;;7.18;;
32505;SDS011;18955;51.224;8.482;2022-08-11T05:54:25;78.43;;;9.50;;
32505;SDS011;18955;51.224;8.482;2022-08-11T05:57:17;80.00;;;8.80;;
32505;SDS011;18955;51.224;8.482;2022-08-11T05:59:48;99.30;;;9.48;;
32505;SDS011;18955;51.224;8.482;2022-08-11T06:02:15;64.45;;;8.05;;
32505;SDS011;18955;51.224;8.482;2022-08-11T06:04:41;85.18;;;8.18;;
32505;SDS011;18955;51.224;8.482;2022-08-11T06:07:10;60.83;;;6.70;;
32505;SDS011;18955;51.224;8.482;2022-08-11T06:12:18;70.43;;;8.55;;
32505;SDS011;18955;51.224;8.482;2022-08-11T06:14:53;85.93;;;8.90;;
32505;SDS011;18955;51.224;8.482;2022-08-11T06:17:21;116.68;;;9.02;;
32505;SDS011;18955;51.224;8.482;2022-08-11T06:19:48;110.78;;;12.45;;
32505;SDS011;18955;51.224;8.482;2022-08-11T06:22:21;127.63;;;10.73;;
32505;SDS011;18955;51.224;8.482;2022-08-11T06:24:53;144.38;;;10.52;;
32505;SDS011;18955;51.224;8.482;2022-08-11T06:27:23;127.50;;;11.27;;
32505;SDS011;18955;51.224;8.482;2022-08-11T06:29:53;167.65;;;14.23;;
32505;SDS011;18955;51.224;8.482;2022-08-11T06:32:25;185.48;;;13.32;;
32505;SDS011;18955;51.224;8.482;2022-08-11T06:37:39;117.82;;;9.48;;
32505;SDS011;18955;51.224;8.482;2022-08-11T06:40:09;133.35;;;9.60;;
32505;SDS011;18955;51.224;8.482;2022-08-11T06:45:15;241.73;;;16.55;;
32505;SDS011;18955;51.224;8.482;2022-08-11T06:47:47;160.98;;;14.07;;
32505;SDS011;18955;51.224;8.482;2022-08-11T06:50:15;124.50;;;9.27;;
32505;SDS011;18955;51.224;8.482;2022-08-11T06:53:06;81.15;;;7.57;;
32505;SDS011;18955;51.224;8.482;2022-08-11T06:55:35;83.32;;;8.23;;
32505;SDS011;18955;51.224;8.482;2022-08-11T06:58:28;87.85;;;9.07;;
32505;SDS011;18955;51.224;8.482;2022-08-11T07:01:17;78.65;;;8.23;;
32505;SDS011;18955;51.224;8.482;2022-08-11T07:03:55;71.22;;;8.02;;
32505;SDS011;18955;51.224;8.482;2022-08-11T07:09:08;56.67;;;6.63;;
32505;SDS011;18955;51.224;8.482;2022-08-11T07:15:18;93.25;;;7.38;;
32505;SDS011;18955;51.224;8.482;2022-08-11T07:18:03;39.72;;;5.68;;
32505;SDS011;18955;51.224;8.482;2022-08-11T07:20:51;19.42;;;5.13;;
32505;SDS011;18955;51.224;8.482;2022-08-11T07:23:48;29.27;;;4.40;;
32505;SDS011;18955;51.224;8.482;2022-08-11T07:26:37;15.00;;;3.75;;
32505;SDS011;18955;51.224;8.482;2022-08-11T07:29:26;19.75;;;4.15;;
32505;SDS011;18955;51.224;8.482;2022-08-11T07:31:56;20.52;;;4.35;;
32505;SDS011;18955;51.224;8.482;2022-08-11T07:34:34;10.55;;;3.28;;
32505;SDS011;18955;51.224;8.482;2022-08-11T07:37:14;25.95;;;3.58;;
32505;SDS011;18955;51.224;8.482;2022-08-11T07:39:45;7.57;;;3.55;;
32505;SDS011;18955;51.224;8.482;2022-08-11T07:42:14;15.23;;;3.03;;
32505;SDS011;18955;51.224;8.482;2022-08-11T07:44:44;14.15;;;3.60;;
32505;SDS011;18955;51.224;8.482;2022-08-11T07:47:30;8.13;;;3.03;;
32505;SDS011;18955;51.224;8.482;2022-08-11T07:50:17;8.40;;;3.53;;
32505;SDS011;18955;51.224;8.482;2022-08-11T07:53:03;5.80;;;2.80;;
32505;SDS011;18955;51.224;8.482;2022-08-11T07:57:57;6.82;;;3.35;;
32505;SDS011;18955;51.224;8.482;2022-08-11T08:00:47;11.52;;;2.97;;
32505;SDS011;18955;51.224;8.482;2022-08-11T08:03:35;6.68;;;2.92;;
32505;SDS011;18955;51.224;8.482;2022-08-11T08:06:21;4.13;;;2.63;;
32505;SDS011;18955;51.224;8.482;2022-08-11T08:09:07;13.43;;;3.13;;
32505;SDS011;18955;51.224;8.482;2022-08-11T08:11:54;8.88;;;2.80;;
32505;SDS011;18955;51.224;8.482;2022-08-11T08:14:40;20.15;;;3.65;;
32505;SDS011;18955;51.224;8.482;2022-08-11T08:17:25;5.03;;;2.70;;
32505;SDS011;18955;51.224;8.482;2022-08-11T08:20:11;7.40;;;3.03;;
32505;SDS011;18955;51.224;8.482;2022-08-11T08:22:38;16.88;;;3.65;;
32505;SDS011;18955;51.224;8.482;2022-08-11T08:25:05;16.23;;;3.22;;
32505;SDS011;18955;51.224;8.482;2022-08-11T08:27:33;11.13;;;2.95;;
32505;SDS011;18955;51.224;8.482;2022-08-11T08:30:04;9.93;;;3.17;;
32505;SDS011;18955;51.224;8.482;2022-08-11T08:32:50;9.98;;;3.13;;
32505;SDS011;18955;51.224;8.482;2022-08-11T08:35:17;4.82;;;2.88;;
32505;SDS011;18955;51.224;8.482;2022-08-11T08:37:44;24.55;;;3.33;;
32505;SDS011;18955;51.224;8.482;2022-08-11T08:40:10;16.23;;;3.45;;
32505;SDS011;18955;51.224;8.482;2022-08-11T08:42:40;14.98;;;4.07;;
32505;SDS011;18955;51.224;8.482;2022-08-11T08:45:15;30.13;;;3.78;;
32505;SDS011;18955;51.224;8.482;2022-08-11T08:48:16;15.65;;;3.80;;
32505;SDS011;18955;51.224;8.482;2022-08-11T08:50:42;9.45;;;3.45;;
32505;SDS011;18955;51.224;8.482;2022-08-11T08:53:33;6.20;;;3.00;;
32505;SDS011;18955;51.224;8.482;2022-08-11T08:56:01;7.93;;;2.90;;
32505;SDS011;18955;51.224;8.482;2022-08-11T08:58:29;8.65;;;3.03;;
32505;SDS011;18955;51.224;8.482;2022-08-11T09:00:57;13.32;;;2.75;;
32505;SDS011;18955;51.224;8.482;2022-08-11T09:03:25;16.38;;;3.22;;
32505;SDS011;18955;51.224;8.482;2022-08-11T09:05:52;8.05;;;3.30;;
32505;SDS011;18955;51.224;8.482;2022-08-11T09:08:20;7.88;;;3.03;;
32505;SDS011;18955;51.224;8.482;2022-08-11T09:10:48;8.15;;;3.28;;
32505;SDS011;18955;51.224;8.482;2022-08-11T09:13:35;15.07;;;3.08;;
32505;SDS011;18955;51.224;8.482;2022-08-11T09:16:07;23.23;;;3.90;;
32505;SDS011;18955;51.224;8.482;2022-08-11T09:18:35;4.47;;;2.90;;
32505;SDS011;18955;51.224;8.482;2022-08-11T09:23:28;7.63;;;3.42;;
32505;SDS011;18955;51.224;8.482;2022-08-11T09:26:14;6.30;;;3.40;;
32505;SDS011;18955;51.224;8.482;2022-08-11T09:28:59;20.83;;;3.83;;
32505;SDS011;18955;51.224;8.482;2022-08-11T09:31:29;5.90;;;3.00;;
32505;SDS011;18955;51.224;8.482;2022-08-11T09:33:58;8.18;;;3.78;;
32505;SDS011;18955;51.224;8.482;2022-08-11T09:36:25;6.57;;;3.85;;
32505;SDS011;18955;51.224;8.482;2022-08-11T09:39:11;21.58;;;3.88;;
32505;SDS011;18955;51.224;8.482;2022-08-11T09:42:01;13.90;;;3.10;;
32505;SDS011;18955;51.224;8.482;2022-08-11T09:44:29;6.28;;;3.30;;
32505;SDS011;18955;51.224;8.482;2022-08-11T09:47:19;6.53;;;3.17;;
32505;SDS011;18955;51.224;8.482;2022-08-11T09:49:46;10.32;;;4.15;;
32505;SDS011;18955;51.224;8.482;2022-08-11T09:52:14;5.10;;;2.95;;
32505;SDS011;18955;51.224;8.482;2022-08-11T09:54:43;6.70;;;3.00;;
32505;SDS011;18955;51.224;8.482;2022-08-11T09:57:13;9.50;;;3.40;;
32505;SDS011;18955;51.224;8.482;2022-08-11T09:59:58;10.35;;;3.38;;
32505;SDS011;18955;51.224;8.482;2022-08-11T10:02:26;13.23;;;3.03;;
32505;SDS011;18955;51.224;8.482;2022-08-11T10:04:56;11.60;;;3.20;;
32505;SDS011;18955;51.224;8.482;2022-08-11T10:07:44;9.40;;;3.17;;
32505;SDS011;18955;51.224;8.482;2022-08-11T10:10:15;5.70;;;2.97;;
32505;SDS011;18955;51.224;8.482;2022-08-11T10:12:48;4.75;;;3.10;;
32505;SDS011;18955;51.224;8.482;2022-08-11T10:15:29;5.63;;;3.08;;
32505;SDS011;18955;51.224;8.482;2022-08-11T10:18:03;11.88;;;3.33;;
32505;SDS011;18955;51.224;8.482;2022-08-11T10:21:00;9.50;;;3.33;;
32505;SDS011;18955;51.224;8.482;2022-08-11T10:23:34;5.50;;;3.20;;
32505;SDS011;18955;51.224;8.482;2022-08-11T10:26:20;7.82;;;3.50;;
32505;SDS011;18955;51.224;8.482;2022-08-11T10:29:07;10.77;;;3.40;;
32505;SDS011;18955;51.224;8.482;2022-08-11T10:31:54;6.70;;;3.50;;
32505;SDS011;18955;51.224;8.482;2022-08-11T10:34:40;7.50;;;3.25;;
32505;SDS011;18955;51.224;8.482;2022-08-11T10:37:10;5.53;;;3.13;;
32505;SDS011;18955;51.224;8.482;2022-08-11T10:39:38;15.32;;;3.00;;
32505;SDS011;18955;51.224;8.482;2022-08-11T10:42:05;9.73;;;3.05;;
32505;SDS011;18955;51.224;8.482;2022-08-11T10:44:52;5.78;;;3.33;;
32505;SDS011;18955;51.224;8.482;2022-08-11T10:47:22;4.28;;;2.90;;
32505;SDS011;18955;51.224;8.482;2022-08-11T10:50:07;7.88;;;3.58;;
32505;SDS011;18955;51.224;8.482;2022-08-11T10:52:54;6.78;;;3.75;;
32505;SDS011;18955;51.224;8.482;2022-08-11T10:55:41;6.15;;;3.28;;
32505;SDS011;18955;51.224;8.482;2022-08-11T10:58:29;7.15;;;3.45;;
32505;SDS011;18955;51.224;8.482;2022-08-11T11:01:15;7.45;;;3.10;;
32505;SDS011;18955;51.224;8.482;2022-08-11T11:03:49;4.80;;;3.55;;
32505;SDS011;18955;51.224;8.482;2022-08-11T11:09:14;6.70;;;3.00;;
32505;SDS011;18955;51.224;8.482;2022-08-11T11:14:54;17.17;;;3.55;;
32505;SDS011;18955;51.224;8.482;2022-08-11T11:17:42;8.05;;;3.80;;
32505;SDS011;18955;51.224;8.482;2022-08-11T11:20:22;9.02;;;3.95;;
32505;SDS011;18955;51.224;8.482;2022-08-11T11:22:50;9.55;;;3.28;;
32505;SDS011;18955;51.224;8.482;2022-08-11T11:25:20;4.90;;;3.40;;
32505;SDS011;18955;51.224;8.482;2022-08-11T11:27:54;6.45;;;3.28;;
32505;SDS011;18955;51.224;8.482;2022-08-11T11:30:36;8.82;;;3.50;;
32505;SDS011;18955;51.224;8.482;2022-08-11T11:33:18;6.22;;;3.30;;
32505;SDS011;18955;51.224;8.482;2022-08-11T11:36:19;7.45;;;3.15;;
32505;SDS011;18955;51.224;8.482;2022-08-11T11:38:59;4.25;;;2.80;;
32505;SDS011;18955;51.224;8.482;2022-08-11T11:41:26;8.05;;;2.97;;
32505;SDS011;18955;51.224;8.482;2022-08-11T11:43:53;17.05;;;3.22;;
32505;SDS011;18955;51.224;8.482;2022-08-11T11:46:23;6.22;;;2.92;;
32505;SDS011;18955;51.224;8.482;2022-08-11T11:48:52;6.65;;;3.05;;
32505;SDS011;18955;51.224;8.482;2022-08-11T11:51:20;8.27;;;3.30;;
32505;SDS011;18955;51.224;8.482;2022-08-11T11:53:48;8.18;;;3.00;;
32505;SDS011;18955;51.224;8.482;2022-08-11T11:56:15;6.40;;;3.00;;
32505;SDS011;18955;51.224;8.482;2022-08-11T11:58:43;10.10;;;3.20;;
32505;SDS011;18955;51.224;8.482;2022-08-11T12:01:28;7.22;;;3.22;;
32505;SDS011;18955;51.224;8.482;2022-08-11T12:03:56;6.20;;;3.10;;
32505;SDS011;18955;51.224;8.482;2022-08-11T12:06:23;8.82;;;3.15;;
32505;SDS011;18955;51.224;8.482;2022-08-11T12:08:55;7.90;;;2.70;;
32505;SDS011;18955;51.224;8.482;2022-08-11T12:11:23;7.57;;;3.00;;
32505;SDS011;18955;51.224;8.482;2022-08-11T12:14:09;7.50;;;3.20;;
32505;SDS011;18955;51.224;8.482;2022-08-11T12:16:40;4.75;;;3.10;;
32505;SDS011;18955;51.224;8.482;2022-08-11T12:19:18;3.03;;;2.53;;
32505;SDS011;18955;51.224;8.482;2022-08-11T12:21:48;6.07;;;2.45;;
32505;SDS011;18955;51.224;8.482;2022-08-11T12:24:34;7.97;;;2.95;;
32505;SDS011;18955;51.224;8.482;2022-08-11T12:27:21;4.63;;;2.88;;
32505;SDS011;18955;51.224;8.482;2022-08-11T12:29:50;9.45;;;2.67;;
32505;SDS011;18955;51.224;8.482;2022-08-11T12:32:34;21.92;;;3.78;;
32505;SDS011;18955;51.224;8.482;2022-08-11T12:35:02;10.75;;;3.45;;
32505;SDS011;18955;51.224;8.482;2022-08-11T12:37:39;6.43;;;3.15;;
32505;SDS011;18955;51.224;8.482;2022-08-11T12:40:21;8.00;;;3.13;;
32505;SDS011;18955;51.224;8.482;2022-08-11T12:43:09;14.25;;;3.38;;
32505;SDS011;18955;51.224;8.482;2022-08-11T12:45:59;4.65;;;3.25;;
32505;SDS011;18955;51.224;8.482;2022-08-11T12:48:30;8.15;;;3.03;;
32505;SDS011;18955;51.224;8.482;2022-08-11T12:51:23;6.03;;;3.47;;
32505;SDS011;18955;51.224;8.482;2022-08-11T12:54:14;7.13;;;3.45;;
32505;SDS011;18955;51.224;8.482;2022-08-11T12:56:49;7.55;;;3.15;;
32505;SDS011;18955;51.224;8.482;2022-08-11T12:59:41;4.55;;;3.53;;
32505;SDS011;18955;51.224;8.482;2022-08-11T13:02:27;6.13;;;2.88;;
32505;SDS011;18955;51.224;8.482;2022-08-11T13:05:13;5.60;;;3.40;;
32505;SDS011;18955;51.224;8.482;2022-08-11T13:07:41;3.83;;;3.20;;
32505;SDS011;18955;51.224;8.482;2022-08-11T13:10:09;6.70;;;3.00;;
32505;SDS011;18955;51.224;8.482;2022-08-11T13:12:37;10.85;;;3.42;;
32505;SDS011;18955;51.224;8.482;2022-08-11T13:15:20;7.60;;;3.20;;
32505;SDS011;18955;51.224;8.482;2022-08-11T13:17:49;7.10;;;3.78;;
32505;SDS011;18955;51.224;8.482;2022-08-11T13:20:17;6.55;;;3.35;;
32505;SDS011;18955;51.224;8.482;2022-08-11T13:22:47;7.82;;;3.85;;
32505;SDS011;18955;51.224;8.482;2022-08-11T13:25:15;6.80;;;3.45;;
32505;SDS011;18955;51.224;8.482;2022-08-11T13:27:43;9.27;;;3.33;;
32505;SDS011;18955;51.224;8.482;2022-08-11T13:30:14;4.50;;;3.70;;
32505;SDS011;18955;51.224;8.482;2022-08-11T13:33:01;5.03;;;3.92;;
32505;SDS011;18955;51.224;8.482;2022-08-11T13:35:32;11.93;;;3.78;;
32505;SDS011;18955;51.224;8.482;2022-08-11T13:38:02;8.27;;;3.42;;
32505;SDS011;18955;51.224;8.482;2022-08-11T13:40:30;7.38;;;3.78;;
32505;SDS011;18955;51.224;8.482;2022-08-11T13:42:57;8.55;;;3.95;;
32505;SDS011;18955;51.224;8.482;2022-08-11T13:45:25;6.40;;;3.75;;
32505;SDS011;18955;51.224;8.482;2022-08-11T13:47:54;4.22;;;3.83;;
32505;SDS011;18955;51.224;8.482;2022-08-11T13:50:23;6.20;;;3.70;;
32505;SDS011;18955;51.224;8.482;2022-08-11T13:53:09;7.40;;;3.78;;
32505;SDS011;18955;51.224;8.482;2022-08-11T13:55:40;4.72;;;3.60;;
32505;SDS011;18955;51.224;8.482;2022-08-11T13:58:10;7.15;;;3.65;;
32505;SDS011;18955;51.224;8.482;2022-08-11T14:00:38;10.80;;;4.43;;
32505;SDS011;18955;51.224;8.482;2022-08-11T14:03:09;6.60;;;3.45;;
32505;SDS011;18955;51.224;8.482;2022-08-11T14:05:38;8.77;;;3.70;;
32505;SDS011;18955;51.224;8.482;2022-08-11T14:08:16;9.48;;;3.28;;
32505;SDS011;18955;51.224;8.482;2022-08-11T14:10:48;5.70;;;3.22;;
32505;SDS011;18955;51.224;8.482;2022-08-11T14:13:38;3.90;;;3.55;;
32505;SDS011;18955;51.224;8.482;2022-08-11T14:16:11;8.13;;;3.42;;
32505;SDS011;18955;51.224;8.482;2022-08-11T14:18:43;4.03;;;3.50;;
32505;SDS011;18955;51.224;8.482;2022-08-11T14:21:11;12.63;;;4.05;;
32505;SDS011;18955;51.224;8.482;2022-08-11T14:23:59;12.13;;;3.60;;
32505;SDS011;18955;51.224;8.482;2022-08-11T14:26:27;4.80;;;3.40;;
32505;SDS011;18955;51.224;8.482;2022-08-11T14:29:00;10.05;;;3.45;;
32505;SDS011;18955;51.224;8.482;2022-08-11T14:31:45;4.55;;;3.30;;
32505;SDS011;18955;51.224;8.482;2022-08-11T14:34:12;8.23;;;3.60;;
32505;SDS011;18955;51.224;8.482;2022-08-11T14:36:41;7.85;;;3.30;;
32505;SDS011;18955;51.224;8.482;2022-08-11T14:39:13;5.10;;;3.00;;
32505;SDS011;18955;51.224;8.482;2022-08-11T14:41:48;7.13;;;3.40;;
32505;SDS011;18955;51.224;8.482;2022-08-11T14:44:45;8.60;;;3.30;;
32505;SDS011;18955;51.224;8.482;2022-08-11T14:47:32;3.92;;;3.15;;
32505;SDS011;18955;51.224;8.482;2022-08-11T14:50:00;6.10;;;3.55;;
32505;SDS011;18955;51.224;8.482;2022-08-11T14:52:28;6.20;;;3.92;;
32505;SDS011;18955;51.224;8.482;2022-08-11T14:54:57;4.10;;;3.50;;
32505;SDS011;18955;51.224;8.482;2022-08-11T14:57:42;3.90;;;3.20;;
32505;SDS011;18955;51.224;8.482;2022-08-11T15:00:09;5.53;;;3.20;;
32505;SDS011;18955;51.224;8.482;2022-08-11T15:02:40;4.97;;;3.15;;
32505;SDS011;18955;51.224;8.482;2022-08-11T15:05:25;9.10;;;3.00;;
32505;SDS011;18955;51.224;8.482;2022-08-11T15:07:53;4.13;;;3.15;;
32505;SDS011;18955;51.224;8.482;2022-08-11T15:10:21;4.80;;;3.35;;
32505;SDS011;18955;51.224;8.482;2022-08-11T15:12:48;7.30;;;3.22;;
32505;SDS011;18955;51.224;8.482;2022-08-11T15:15:15;7.70;;;3.17;;
32505;SDS011;18955;51.224;8.482;2022-08-11T15:18:02;7.00;;;3.10;;
32505;SDS011;18955;51.224;8.482;2022-08-11T15:20:30;7.90;;;3.38;;
32505;SDS011;18955;51.224;8.482;2022-08-11T15:23:16;9.15;;;3.22;;
32505;SDS011;18955;51.224;8.482;2022-08-11T15:26:03;4.85;;;2.92;;
32505;SDS011;18955;51.224;8.482;2022-08-11T15:28:33;4.10;;;3.08;;
32505;SDS011;18955;51.224;8.482;2022-08-11T15:31:24;4.90;;;3.03;;
32505;SDS011;18955;51.224;8.482;2022-08-11T15:33:56;6.28;;;3.45;;
32505;SDS011;18955;51.224;8.482;2022-08-11T15:36:46;6.40;;;2.85;;
32505;SDS011;18955;51.224;8.482;2022-08-11T15:39:39;6.68;;;3.00;;
32505;SDS011;18955;51.224;8.482;2022-08-11T15:42:32;5.47;;;2.92;;
32505;SDS011;18955;51.224;8.482;2022-08-11T15:45:19;7.50;;;2.97;;
32505;SDS011;18955;51.224;8.482;2022-08-11T15:50:36;6.85;;;2.88;;
32505;SDS011;18955;51.224;8.482;2022-08-11T15:53:15;7.10;;;2.72;;
32505;SDS011;18955;51.224;8.482;2022-08-11T15:55:57;5.35;;;2.97;;
32505;SDS011;18955;51.224;8.482;2022-08-11T15:58:26;8.27;;;3.05;;
32505;SDS011;18955;51.224;8.482;2022-08-11T16:01:17;7.07;;;3.05;;
32505;SDS011;18955;51.224;8.482;2022-08-11T16:04:05;9.30;;;3.05;;
32505;SDS011;18955;51.224;8.482;2022-08-11T16:06:43;6.88;;;2.60;;
32505;SDS011;18955;51.224;8.482;2022-08-11T16:09:30;7.10;;;3.17;;
32505;SDS011;18955;51.224;8.482;2022-08-11T16:12:03;5.60;;;2.97;;
32505;SDS011;18955;51.224;8.482;2022-08-11T16:14:34;7.18;;;2.70;;
32505;SDS011;18955;51.224;8.482;2022-08-11T16:17:23;7.35;;;3.20;;
32505;SDS011;18955;51.224;8.482;2022-08-11T16:19:52;10.00;;;2.80;;
32505;SDS011;18955;51.224;8.482;2022-08-11T16:22:27;5.55;;;2.80;;
32505;SDS011;18955;51.224;8.482;2022-08-11T16:25:22;6.18;;;2.60;;
32505;SDS011;18955;51.224;8.482;2022-08-11T16:30:31;5.28;;;2.75;;
32505;SDS011;18955;51.224;8.482;2022-08-11T16:32:59;4.80;;;2.92;;
32505;SDS011;18955;51.224;8.482;2022-08-11T16:35:28;3.67;;;2.70;;
32505;SDS011;18955;51.224;8.482;2022-08-11T16:38:17;10.57;;;3.25;;
32505;SDS011;18955;51.224;8.482;2022-08-11T16:41:01;8.43;;;3.15;;
32505;SDS011;18955;51.224;8.482;2022-08-11T16:43:31;4.05;;;2.72;;
32505;SDS011;18955;51.224;8.482;2022-08-11T16:46:20;10.50;;;2.40;;
32505;SDS011;18955;51.224;8.482;2022-08-11T16:49:11;3.97;;;2.60;;
32505;SDS011;18955;51.224;8.482;2022-08-11T16:51:45;10.73;;;3.13;;
32505;SDS011;18955;51.224;8.482;2022-08-11T16:54:12;5.03;;;2.78;;
32505;SDS011;18955;51.224;8.482;2022-08-11T16:56:44;5.57;;;2.90;;
32505;SDS011;18955;51.224;8.482;2022-08-11T16:59:14;5.03;;;2.85;;
32505;SDS011;18955;51.224;8.482;2022-08-11T17:01:51;7.03;;;3.20;;
32505;SDS011;18955;51.224;8.482;2022-08-11T17:07:29;5.50;;;3.22;;
32505;SDS011;18955;51.224;8.482;2022-08-11T17:10:17;6.03;;;3.30;;
32505;SDS011;18955;51.224;8.482;2022-08-11T17:13:10;3.67;;;3.10;;
32505;SDS011;18955;51.224;8.482;2022-08-11T17:15:41;5.55;;;2.88;;
32505;SDS011;18955;51.224;8.482;2022-08-11T17:18:30;8.70;;;3.25;;
32505;SDS011;18955;51.224;8.482;2022-08-11T17:21:18;4.45;;;2.70;;
32505;SDS011;18955;51.224;8.482;2022-08-11T17:23:52;6.50;;;3.00;;
32505;SDS011;18955;51.224;8.482;2022-08-11T17:26:25;3.70;;;2.85;;
32505;SDS011;18955;51.224;8.482;2022-08-11T17:32:09;6.78;;;3.00;;
32505;SDS011;18955;51.224;8.482;2022-08-11T17:34:58;12.02;;;2.97;;
32505;SDS011;18955;51.224;8.482;2022-08-11T17:37:47;12.55;;;3.20;;
32505;SDS011;18955;51.224;8.482;2022-08-11T17:40:18;10.52;;;3.08;;
32505;SDS011;18955;51.224;8.482;2022-08-11T17:42:52;6.97;;;3.17;;
32505;SDS011;18955;51.224;8.482;2022-08-11T17:45:39;6.47;;;3.13;;
32505;SDS011;18955;51.224;8.482;2022-08-11T17:48:28;5.93;;;2.90;;
32505;SDS011;18955;51.224;8.482;2022-08-11T17:51:02;7.80;;;3.03;;
32505;SDS011;18955;51.224;8.482;2022-08-11T17:53:38;6.75;;;2.85;;
32505;SDS011;18955;51.224;8.482;2022-08-11T17:59:10;7.05;;;2.72;;
32505;SDS011;18955;51.224;8.482;2022-08-11T18:01:57;3.20;;;2.60;;
32505;SDS011;18955;51.224;8.482;2022-08-11T18:04:54;7.97;;;2.80;;
32505;SDS011;18955;51.224;8.482;2022-08-11T18:07:22;4.65;;;2.88;;
32505;SDS011;18955;51.224;8.482;2022-08-11T18:10:08;6.63;;;2.80;;
32505;SDS011;18955;51.224;8.482;2022-08-11T18:12:54;4.68;;;2.92;;
32505;SDS011;18955;51.224;8.482;2022-08-11T18:15:42;5.07;;;2.60;;
32505;SDS011;18955;51.224;8.482;2022-08-11T18:18:27;5.30;;;2.90;;
32505;SDS011;18955;51.224;8.482;2022-08-11T18:21:14;7.95;;;2.58;;
32505;SDS011;18955;51.224;8.482;2022-08-11T18:24:02;6.25;;;2.72;;
32505;SDS011;18955;51.224;8.482;2022-08-11T18:26:51;13.07;;;3.63;;
32505;SDS011;18955;51.224;8.482;2022-08-11T18:29:39;7.45;;;2.45;;
32505;SDS011;18955;51.224;8.482;2022-08-11T18:32:26;6.28;;;3.03;;
32505;SDS011;18955;51.224;8.482;2022-08-11T18:35:12;3.95;;;2.60;;
32505;SDS011;18955;51.224;8.482;2022-08-11T18:37:58;4.57;;;2.60;;
32505;SDS011;18955;51.224;8.482;2022-08-11T18:40:46;5.60;;;2.80;;
32505;SDS011;18955;51.224;8.482;2022-08-11T18:43:34;3.55;;;2.50;;
32505;SDS011;18955;51.224;8.482;2022-08-11T18:46:22;5.03;;;2.70;;
32505;SDS011;18955;51.224;8.482;2022-08-11T18:49:12;5.53;;;2.80;;
32505;SDS011;18955;51.224;8.482;2022-08-11T18:52:00;4.07;;;2.50;;
32505;SDS011;18955;51.224;8.482;2022-08-11T18:54:47;6.35;;;2.42;;
32505;SDS011;18955;51.224;8.482;2022-08-11T19:00:22;7.10;;;3.30;;
32505;SDS011;18955;51.224;8.482;2022-08-11T19:03:08;6.75;;;2.88;;
32505;SDS011;18955;51.224;8.482;2022-08-11T19:06:00;6.13;;;2.70;;
32505;SDS011;18955;51.224;8.482;2022-08-11T19:08:48;7.07;;;3.35;;
32505;SDS011;18955;51.224;8.482;2022-08-11T19:11:36;13.98;;;3.30;;
32505;SDS011;18955;51.224;8.482;2022-08-11T19:14:22;11.38;;;3.67;;
32505;SDS011;18955;51.224;8.482;2022-08-11T19:17:10;9.57;;;3.08;;
32505;SDS011;18955;51.224;8.482;2022-08-11T19:22:43;10.45;;;3.20;;
32505;SDS011;18955;51.224;8.482;2022-08-11T19:25:29;17.58;;;4.50;;
32505;SDS011;18955;51.224;8.482;2022-08-11T19:28:15;8.23;;;3.13;;
32505;SDS011;18955;51.224;8.482;2022-08-11T19:31:02;8.10;;;3.28;;
32505;SDS011;18955;51.224;8.482;2022-08-11T19:33:48;11.20;;;4.05;;
32505;SDS011;18955;51.224;8.482;2022-08-11T19:36:34;15.63;;;3.80;;
32505;SDS011;18955;51.224;8.482;2022-08-11T19:39:21;12.27;;;3.38;;
32505;SDS011;18955;51.224;8.482;2022-08-11T19:42:06;4.80;;;2.92;;
32505;SDS011;18955;51.224;8.482;2022-08-11T19:44:53;8.50;;;3.30;;
32505;SDS011;18955;51.224;8.482;2022-08-11T19:47:39;4.88;;;3.50;;
32505;SDS011;18955;51.224;8.482;2022-08-11T19:50:25;6.47;;;3.17;;
32505;SDS011;18955;51.224;8.482;2022-08-11T19:53:10;8.82;;;3.22;;
32505;SDS011;18955;51.224;8.482;2022-08-11T19:55:56;3.72;;;3.15;;
32505;SDS011;18955;51.224;8.482;2022-08-11T19:58:41;6.85;;;3.88;;
32505;SDS011;18955;51.224;8.482;2022-08-11T20:01:27;6.18;;;3.13;;
32505;SDS011;18955;51.224;8.482;2022-08-11T20:04:12;5.90;;;3.38;;
32505;SDS011;18955;51.224;8.482;2022-08-11T20:06:57;7.13;;;2.70;;
32505;SDS011;18955;51.224;8.482;2022-08-11T20:09:43;3.15;;;2.58;;